Time;durP1;ratioP1;P1;durP2;ratioP2;P2;SDS_P1;SDS_P2;PMS_P1;PMS_P2;Temp;Humidity;BMP_temperature;BMP_pressure;BME280_temperature;BME280_humidity;BME280_pressure;Samples;Min_cycle;Max_cycle;Signal;HPM_P1;HPM_P2
2021/07/13 00:01:40;;;;;;;;;26.00;23.00;;;;;23.66;58.48;98486.63;6268958;27;97625;-64
2021/07/13 00:04:43;;;;;;;;;24.50;21.75;;;;;23.67;58.71;98489.09;6283057;27;96925;-64
2021/07/13 00:07:48;;;;;;;;;22.80;21.80;;;;;23.64;58.41;98480.66;6269033;27;97538;-63
2021/07/13 00:10:51;;;;;;;;;21.00;18.50;;;;;23.53;58.48;98474.63;6269746;27;97418;-64
2021/07/13 00:18:54;;;;;;;;;18.80;15.80;;;;;23.68;58.80;98465.13;6280015;27;96898;-64
2021/07/13 00:21:58;;;;;;;;;16.00;16.00;;;;;23.68;58.32;98470.63;6280984;27;97591;-63
2021/07/13 00:25:02;;;;;;;;;19.60;17.00;;;;;23.70;58.78;98466.41;6276294;27;96456;-63
2021/07/13 00:28:06;;;;;;;;;16.00;14.60;;;;;23.62;59.14;98466.41;6269199;27;96650;-64
2021/07/13 00:31:09;;;;;;;;;19.50;17.00;;;;;23.61;59.07;98460.06;6278825;27;98051;-64
2021/07/13 00:34:14;;;;;;;;;15.00;14.00;;;;;23.53;59.14;98449.84;6283176;27;97407;-64
2021/07/13 00:37:17;;;;;;;;;14.00;13.20;;;;;23.57;58.90;98447.28;6277464;27;97403;-63
2021/07/13 00:40:22;;;;;;;;;16.20;15.00;;;;;23.60;58.88;98438.41;6269935;27;97067;-63
2021/07/13 00:43:25;;;;;;;;;15.25;14.25;;;;;23.68;58.60;98449.44;6281381;27;96989;-63
2021/07/13 00:46:29;;;;;;;;;15.80;14.00;;;;;23.71;58.64;98435.03;6280660;27;97555;-65
2021/07/13 00:49:36;;;;;;;;;14.00;12.00;;;;;23.80;58.56;98435.03;6279441;27;97620;-64
2021/07/13 00:52:39;;;;;;;;;13.00;13.00;;;;;23.80;58.35;98429.53;6270745;27;97468;-63
2021/07/13 00:55:42;;;;;;;;;16.80;15.00;;;;;23.86;58.14;98433.78;6285007;27;97733;-63
2021/07/13 00:58:45;;;;;;;;;13.00;12.50;;;;;23.95;58.13;98434.59;6284427;27;97241;-62
2021/07/13 01:01:49;;;;;;;;;13.00;13.00;;;;;23.93;57.96;98425.88;6269448;27;96544;-62
2021/07/13 01:05:00;;;;;;;;;13.40;12.80;;;;;23.89;58.23;98424.91;6281198;27;97365;-64
2021/07/13 01:08:14;;;;;;;;;14.00;14.00;;;;;23.72;58.52;98411.06;6280919;27;97261;-63
2021/07/13 01:11:27;;;;;;;;;18.40;15.00;;;;;23.83;58.55;98425.34;6265882;27;97920;-62
2021/07/13 01:14:37;;;;;;;;;16.50;15.50;;;;;23.86;58.45;98430.22;6273584;27;97164;-65
2021/07/13 01:17:45;;;;;;;;;13.00;12.00;;;;;23.86;58.33;98430.22;6284659;27;96977;-64
2021/07/13 01:21:04;;;;;;;;;16.50;15.50;;;;;23.89;58.51;98432.34;6275823;27;96707;-65
2021/07/13 01:24:29;;;;;;;;;17.00;15.80;;;;;23.92;58.30;98427.00;6279701;27;97051;-65
2021/07/13 01:27:55;;;;;;;;;16.00;14.00;;;;;23.94;58.36;98432.19;6266525;27;97455;-65
2021/07/13 01:31:04;;;;;;;;;20.20;16.00;;;;;23.93;58.26;98425.88;6276003;27;96670;-65
2021/07/13 01:34:15;;;;;;;;;18.40;17.40;;;;;23.92;58.48;98432.50;6284564;27;96815;-66
2021/07/13 01:37:21;;;;;;;;;21.60;19.00;;;;;23.93;58.58;98436.88;6267836;27;97203;-64
2021/07/13 01:40:26;;;;;;;;;21.40;20.00;;;;;23.94;58.38;98423.94;6267645;27;97352;-65
2021/07/13 01:43:31;;;;;;;;;26.20;22.00;;;;;23.96;58.48;98421.66;6271199;27;96758;-65
2021/07/13 01:46:42;;;;;;;;;21.00;20.00;;;;;23.97;57.71;98420.53;6269920;27;97198;-65
2021/07/13 01:49:48;;;;;;;;;24.40;20.40;;;;;23.95;57.63;98418.09;6280265;27;96860;-66
2021/07/13 01:52:57;;;;;;;;;26.00;22.00;;;;;23.94;58.11;98427.50;6263571;27;97161;-66
2021/07/13 01:56:01;;;;;;;;;25.40;24.00;;;;;23.91;58.04;98430.88;6277970;27;97895;-64
2021/07/13 01:59:15;;;;;;;;;26.40;22.00;;;;;23.89;57.54;98441.41;6277755;27;97429;-64
2021/07/13 02:02:21;;;;;;;;;25.40;23.40;;;;;23.85;57.89;98434.91;6271910;27;97281;-65
2021/07/13 02:05:27;;;;;;;;;25.00;22.00;;;;;23.81;57.99;98435.84;6266967;27;98255;-65
2021/07/13 02:08:35;;;;;;;;;27.00;26.00;;;;;23.78;57.67;98431.81;6266544;27;96777;-64
2021/07/13 02:11:43;;;;;;;;;29.20;26.40;;;;;23.69;58.16;98426.28;6266769;27;96649;-64
2021/07/13 02:14:46;;;;;;;;;27.50;23.75;;;;;23.56;58.43;98421.69;6271985;27;96893;-64
2021/07/13 02:17:51;;;;;;;;;27.60;23.00;;;;;23.47;58.16;98412.59;6279940;27;97319;-64
2021/07/13 02:20:55;;;;;;;;;27.00;24.50;;;;;23.52;57.95;98422.63;6286036;27;98343;-64
2021/07/13 02:23:59;;;;;;;;;25.60;21.60;;;;;23.49;58.22;98428.78;6274387;27;97769;-64
2021/07/13 02:27:09;;;;;;;;;30.50;26.50;;;;;23.48;58.02;98427.16;6266010;27;97862;-65
2021/07/13 02:30:14;;;;;;;;;28.00;24.00;;;;;23.48;58.36;98435.41;6274531;27;97466;-64
2021/07/13 02:33:23;;;;;;;;;28.00;24.50;;;;;23.46;58.61;98437.66;6287571;27;96963;-65
2021/07/13 02:36:31;;;;;;;;;31.00;27.60;;;;;23.42;59.02;98444.91;6282305;27;96780;-65
2021/07/13 02:39:39;;;;;;;;;28.80;26.00;;;;;23.39;59.25;98449.09;6285720;27;96625;-65
2021/07/13 02:42:50;;;;;;;;;33.00;27.00;;;;;23.38;59.11;98452.16;6277843;27;96677;-65
2021/07/13 02:45:55;;;;;;;;;32.00;27.00;;;;;23.29;59.80;98452.94;6271832;27;96804;-65
2021/07/13 02:49:01;;;;;;;;;31.00;26.00;;;;;23.24;59.33;98444.81;6274392;27;96645;-65
2021/07/13 02:52:05;;;;;;;;;35.40;30.00;;;;;23.21;60.06;98450.16;6283805;27;97825;-66
2021/07/13 02:55:14;;;;;;;;;33.80;29.80;;;;;23.23;59.73;98451.44;6270603;27;97813;-65
2021/07/13 02:58:21;;;;;;;;;30.40;27.80;;;;;23.24;60.28;98455.00;6281410;27;96780;-65
2021/07/13 03:01:25;;;;;;;;;30.80;28.00;;;;;23.18;60.30;98457.06;6278562;27;96721;-66
2021/07/13 03:04:31;;;;;;;;;30.40;27.00;;;;;23.21;60.46;98455.66;6279317;27;96730;-65
2021/07/13 03:07:34;;;;;;;;;34.40;29.00;;;;;23.13;60.49;98454.44;6282695;27;97590;-65
2021/07/13 03:10:38;;;;;;;;;26.20;23.80;;;;;23.04;60.62;98453.59;6272144;27;96580;-64
2021/07/13 03:13:42;;;;;;;;;32.00;27.00;;;;;23.06;61.08;98459.59;6276950;27;97413;-65
2021/07/13 03:16:48;;;;;;;;;31.00;26.60;;;;;23.15;60.78;98449.47;6278300;27;97438;-65
2021/07/13 03:19:53;;;;;;;;;29.00;24.60;;;;;23.25;60.69;98449.19;6271218;27;97640;-65
2021/07/13 03:22:58;;;;;;;;;31.60;26.40;;;;;23.28;60.42;98445.00;6277103;27;97071;-65
2021/07/13 03:26:02;;;;;;;;;32.00;29.00;;;;;23.32;60.26;98448.72;6279800;27;97368;-65
2021/07/13 03:29:07;;;;;;;;;30.00;28.00;;;;;23.35;60.32;98447.31;6283588;27;97357;-64
2021/07/13 03:32:14;;;;;;;;;27.40;25.80;;;;;23.29;60.10;98444.69;6272250;27;97380;-65
2021/07/13 03:35:19;;;;;;;;;30.50;27.00;;;;;23.37;60.19;98445.84;6264223;27;96681;-64
2021/07/13 03:38:23;;;;;;;;;32.00;28.60;;;;;23.47;60.47;98450.28;6283598;27;98062;-64
2021/07/13 03:41:29;;;;;;;;;28.80;26.20;;;;;23.49;60.29;98450.81;6280773;27;97491;-64
2021/07/13 03:44:33;;;;;;;;;31.00;26.20;;;;;23.68;59.52;98440.38;6281358;27;97397;-65
2021/07/13 03:47:36;;;;;;;;;32.00;26.00;;;;;23.72;59.63;98444.91;6266742;27;98063;-65
2021/07/13 03:50:44;;;;;;;;;30.00;27.00;;;;;23.80;59.66;98439.78;6255551;27;96800;-65
2021/07/13 03:53:47;;;;;;;;;31.60;27.60;;;;;23.86;59.37;98435.72;6269217;27;98332;-65
2021/07/13 03:56:51;;;;;;;;;28.50;25.50;;;;;23.89;59.47;98430.41;6283511;27;99495;-65
2021/07/13 03:59:54;;;;;;;;;29.00;27.20;;;;;23.90;59.36;98426.50;6284545;27;97999;-65
2021/07/13 04:02:59;;;;;;;;;31.00;28.00;;;;;23.99;59.43;98427.34;6275493;27;96525;-64
2021/07/13 04:06:04;;;;;;;;;29.50;26.50;;;;;24.11;58.87;98429.47;6273992;27;97608;-64
2021/07/13 04:09:09;;;;;;;;;29.50;25.50;;;;;24.14;59.01;98429.63;6280953;27;99645;-64
2021/07/13 04:12:12;;;;;;;;;29.00;28.00;;;;;24.19;58.36;98433.41;6279672;27;97499;-64
2021/07/13 04:15:16;;;;;;;;;34.50;29.75;;;;;24.26;58.51;98436.50;6281250;27;97434;-65
2021/07/13 04:18:19;;;;;;;;;32.80;30.00;;;;;24.28;58.36;98432.31;6282923;27;96702;-65
2021/07/13 04:21:24;;;;;;;;;31.00;27.60;;;;;24.23;58.51;98429.69;6285080;27;96833;-64
2021/07/13 04:24:27;;;;;;;;;34.40;29.60;;;;;24.30;58.66;98442.97;6272355;27;96945;-65
2021/07/13 04:27:31;;;;;;;;;32.00;26.00;;;;;24.30;58.70;98442.97;6284587;27;96764;-65
2021/07/13 04:30:34;;;;;;;;;32.60;27.60;;;;;24.37;58.72;98443.31;6262292;27;97213;-65
2021/07/13 04:33:37;;;;;;;;;26.00;24.00;;;;;24.30;58.56;98441.03;6284784;27;98424;-64
2021/07/13 04:36:42;;;;;;;;;28.00;24.00;;;;;24.41;58.55;98430.53;6276122;27;99362;-63
2021/07/13 04:39:45;;;;;;;;;27.00;24.60;;;;;24.42;58.68;98434.91;6275753;27;96690;-63
2021/07/13 04:42:49;;;;;;;;;27.60;24.40;;;;;24.46;58.23;98436.69;6272319;27;97936;-64
2021/07/13 04:45:52;;;;;;;;;23.20;21.80;;;;;24.51;58.18;98432.97;6271345;27;97312;-63
2021/07/13 04:48:57;;;;;;;;;23.60;21.60;;;;;24.49;58.06;98429.69;6271417;27;96702;-64
2021/07/13 04:52:02;;;;;;;;;26.20;23.80;;;;;24.47;58.38;98427.28;6275278;27;96849;-64
2021/07/13 04:55:07;;;;;;;;;25.00;21.20;;;;;24.51;58.31;98432.97;6279284;27;96666;-64
2021/07/13 04:58:10;;;;;;;;;25.40;23.00;;;;;24.58;58.70;98438.81;6270642;27;97193;-64
2021/07/13 05:01:14;;;;;;;;;28.75;23.75;;;;;24.63;58.31;98435.84;6271483;27;96872;-63
2021/07/13 05:04:17;;;;;;;;;25.40;22.80;;;;;24.68;57.94;98443.97;6276462;27;98483;-64
2021/07/13 05:07:23;;;;;;;;;24.40;22.00;;;;;24.73;57.39;98432.00;6268937;27;98406;-63
2021/07/13 05:10:26;;;;;;;;;25.00;24.00;;;;;24.76;57.90;98434.09;6279451;27;100007;-64
2021/07/13 05:13:30;;;;;;;;;25.00;22.00;;;;;24.87;57.28;98435.41;6282142;27;96847;-64
2021/07/13 05:16:33;;;;;;;;;24.00;21.67;;;;;24.93;57.36;98437.66;6273058;27;97266;-64
2021/07/13 05:19:38;;;;;;;;;25.00;24.60;;;;;25.02;56.98;98430.19;6280002;27;99325;-63
2021/07/13 05:22:44;;;;;;;;;30.25;25.00;;;;;25.00;56.94;98428.91;6262550;27;98653;-64
2021/07/13 05:25:47;;;;;;;;;28.00;24.00;;;;;24.98;57.17;98431.97;6282858;27;96699;-64
2021/07/13 05:28:51;;;;;;;;;22.50;21.50;;;;;24.94;57.26;98436.53;6280218;27;96866;-63
2021/07/13 05:31:55;;;;;;;;;25.20;23.20;;;;;24.98;57.29;98439.44;6278556;27;97549;-63
2021/07/13 05:34:59;;;;;;;;;26.00;23.60;;;;;25.01;56.87;98436.03;6275664;27;97186;-63
2021/07/13 05:38:06;;;;;;;;;22.60;22.20;;;;;25.18;56.82;98438.75;6285924;27;97267;-64
2021/07/13 05:41:09;;;;;;;;;24.60;21.60;;;;;25.31;57.25;98439.72;6268796;27;96619;-63
2021/07/13 05:44:13;;;;;;;;;20.60;20.00;;;;;25.58;56.06;98439.31;6288534;27;97759;-63
2021/07/13 05:47:16;;;;;;;;;21.80;20.20;;;;;25.59;55.20;98440.13;6280948;27;96462;-64
2021/07/13 05:50:19;;;;;;;;;22.20;19.20;;;;;25.57;54.91;98434.94;6285764;27;97096;-64
2021/07/13 05:53:24;;;;;;;;;22.00;21.60;;;;;25.60;55.04;98434.28;6288626;27;97324;-63
2021/07/13 05:56:28;;;;;;;;;22.50;20.75;;;;;25.63;55.15;98441.91;6269550;27;97684;-64
2021/07/13 05:59:31;;;;;;;;;23.00;21.40;;;;;25.70;54.44;98436.69;6288352;27;98268;-64
2021/07/13 06:02:34;;;;;;;;;21.60;20.00;;;;;25.91;55.11;98431.19;6288528;27;96651;-64
2021/07/13 06:05:38;;;;;;;;;23.20;20.60;;;;;26.09;54.95;98431.94;6289209;27;96872;-63
2021/07/13 06:08:43;;;;;;;;;23.00;22.00;;;;;26.19;53.87;98434.31;6279940;27;96556;-63
2021/07/13 06:11:46;;;;;;;;;21.20;19.20;;;;;26.29;53.79;98429.22;6274719;27;96877;-64
2021/07/13 06:14:50;;;;;;;;;23.00;22.00;;;;;26.26;53.70;98409.72;6277861;27;97275;-64
2021/07/13 06:17:57;;;;;;;;;21.60;21.00;;;;;26.57;54.28;98429.50;6288217;27;96475;-64
2021/07/13 06:21:01;;;;;;;;;22.50;21.00;;;;;26.72;53.32;98419.78;6277899;27;96570;-64
2021/07/13 06:24:06;;;;;;;;;21.00;19.00;;;;;26.63;52.66;98419.06;6282859;27;96731;-63
2021/07/13 06:27:12;;;;;;;;;22.40;21.00;;;;;26.81;53.92;98419.69;6288090;27;97419;-63
2021/07/13 06:30:17;;;;;;;;;19.60;18.00;;;;;26.99;53.46;98415.66;6287753;27;96511;-64
2021/07/13 06:33:21;;;;;;;;;21.60;20.00;;;;;27.18;53.98;98413.16;6274135;27;97483;-63
2021/07/13 06:36:24;;;;;;;;;23.25;22.50;;;;;27.36;53.27;98417.38;6285259;27;97375;-63
2021/07/13 06:39:29;;;;;;;;;19.00;19.00;;;;;27.56;53.67;98416.50;6283381;27;97565;-64
2021/07/13 06:42:32;;;;;;;;;20.60;18.60;;;;;27.73;53.44;98406.34;6285552;27;96616;-63
2021/07/13 06:45:36;;;;;;;;;20.00;19.00;;;;;27.97;52.78;98403.59;6277611;27;98714;-64
2021/07/13 06:48:44;;;;;;;;;20.00;19.00;;;;;28.08;50.64;98396.41;6285537;27;99576;-62
2021/07/13 06:51:47;;;;;;;;;20.00;18.00;;;;;28.12;50.06;98391.00;6276391;27;96684;-63
2021/07/13 06:54:52;;;;;;;;;22.40;20.00;;;;;28.23;50.55;98392.16;6287385;27;96833;-63
2021/07/13 06:57:55;;;;;;;;;18.20;17.20;;;;;28.31;51.16;98392.00;6287150;27;97027;-62
2021/07/13 07:00:59;;;;;;;;;19.50;17.00;;;;;28.52;51.56;98393.81;6287557;27;96457;-63
2021/07/13 07:04:02;;;;;;;;;20.00;19.60;;;;;28.56;50.48;98386.41;6286595;27;97623;-62
2021/07/13 07:07:05;;;;;;;;;18.00;18.00;;;;;28.66;50.10;98395.03;6287642;27;97376;-62
2021/07/13 07:10:11;;;;;;;;;20.00;18.33;;;;;28.75;50.90;98395.72;6286892;27;97275;-62
2021/07/13 07:13:14;;;;;;;;;18.00;17.75;;;;;28.72;49.83;98385.34;6284690;27;97438;-64
2021/07/13 07:16:17;;;;;;;;;19.00;19.00;;;;;28.71;49.47;98389.25;6287392;27;96945;-62
2021/07/13 07:19:21;;;;;;;;;20.50;17.50;;;;;28.83;50.44;98388.41;6287290;27;97621;-63
2021/07/13 07:22:24;;;;;;;;;18.60;18.00;;;;;28.87;49.21;98381.00;6286805;27;97541;-63
2021/07/13 07:25:30;;;;;;;;;19.00;18.00;;;;;29.15;49.43;98387.31;6281243;27;97750;-64
2021/07/13 07:28:34;;;;;;;;;17.75;16.00;;;;;29.46;50.41;98385.75;6285656;27;97392;-63
2021/07/13 07:31:37;;;;;;;;;21.00;19.60;;;;;29.68;48.72;98372.03;6287143;27;96514;-63
2021/07/13 07:34:41;;;;;;;;;19.00;17.20;;;;;29.87;47.88;98378.81;6277310;27;96774;-61
2021/07/13 07:37:46;;;;;;;;;19.00;18.40;;;;;29.83;46.95;98384.31;6279936;27;96694;-63
2021/07/13 07:40:51;;;;;;;;;19.40;18.00;;;;;29.82;47.85;98377.13;6287168;27;96464;-63
2021/07/13 07:43:55;;;;;;;;;18.50;16.75;;;;;29.95;47.94;98366.75;6283767;27;97476;-63
2021/07/13 07:46:59;;;;;;;;;20.00;19.00;;;;;30.22;47.93;98376.09;6286576;27;97034;-62
2021/07/13 07:50:03;;;;;;;;;19.80;17.00;;;;;30.35;47.13;98372.81;6285741;27;97426;-63
2021/07/13 07:53:06;;;;;;;;;20.00;19.00;;;;;30.67;48.32;98365.19;6286096;27;97265;-62
2021/07/13 07:56:11;;;;;;;;;18.50;17.50;;;;;31.06;46.90;98359.59;6285781;27;97451;-62
2021/07/13 07:59:14;;;;;;;;;19.00;17.60;;;;;31.30;46.56;98357.25;6284540;27;96593;-61
2021/07/13 08:02:18;;;;;;;;;20.75;19.00;;;;;31.49;44.58;98350.00;6282269;27;96681;-62
2021/07/13 08:05:24;;;;;;;;;18.20;17.20;;;;;31.65;45.53;98334.78;6285912;27;97515;-62
2021/07/13 08:08:28;;;;;;;;;18.00;17.40;;;;;31.97;45.09;98357.56;6285245;27;96545;-62
2021/07/13 08:11:32;;;;;;;;;18.20;17.20;;;;;32.17;45.18;98358.28;6285967;27;97442;-62
2021/07/13 08:14:36;;;;;;;;;21.00;20.00;;;;;32.23;43.80;98367.94;6282615;27;97009;-62
2021/07/13 08:17:39;;;;;;;;;19.00;18.00;;;;;32.40;44.70;98361.78;6276155;27;96653;-61
2021/07/13 08:20:43;;;;;;;;;18.60;18.00;;;;;32.42;44.05;98365.00;6281877;27;96695;-62
2021/07/13 08:23:46;;;;;;;;;19.00;18.00;;;;;32.48;44.18;98373.84;6280554;27;97426;-62
2021/07/13 08:26:51;;;;;;;;;19.00;18.75;;;;;32.67;44.92;98376.50;6284498;27;96697;-62
2021/07/13 08:29:55;;;;;;;;;22.00;20.00;;;;;32.90;44.33;98370.78;6285926;27;97393;-62
2021/07/13 08:32:59;;;;;;;;;21.40;20.00;;;;;33.13;44.11;98373.44;6286662;27;97487;-63
2021/07/13 08:36:03;;;;;;;;;18.60;18.60;;;;;33.36;43.85;98374.09;6288869;27;97341;-61
2021/07/13 08:39:06;;;;;;;;;21.75;19.75;;;;;33.56;42.96;98369.09;6287783;27;98496;-62
2021/07/13 08:42:11;;;;;;;;;21.60;21.60;;;;;33.49;42.60;98369.81;6286834;27;96409;-61
2021/07/13 08:45:17;;;;;;;;;20.00;19.00;;;;;33.45;43.58;98372.59;6284965;27;97619;-61
2021/07/13 08:48:22;;;;;;;;;20.00;20.00;;;;;33.61;42.92;98371.53;6286171;27;96563;-63
2021/07/13 08:51:26;;;;;;;;;22.50;21.00;;;;;33.72;42.73;98370.44;6290089;27;97416;-62
2021/07/13 08:54:34;;;;;;;;;22.60;22.00;;;;;33.87;42.69;98366.56;6289287;27;97459;-62
2021/07/13 08:57:40;;;;;;;;;21.00;20.00;;;;;33.85;42.29;98376.56;6288955;27;97496;-62
2021/07/13 09:00:43;;;;;;;;;22.00;19.20;;;;;33.77;41.88;98375.69;6287407;27;97355;-62
2021/07/13 09:03:55;;;;;;;;;22.40;22.00;;;;;33.83;42.20;98374.13;6281846;27;97525;-62
2021/07/13 09:06:59;;;;;;;;;22.00;21.60;;;;;33.99;41.88;98367.44;6289413;27;97447;-61
2021/07/13 09:10:04;;;;;;;;;25.00;24.00;;;;;34.17;42.53;98374.75;6287779;27;96911;-61
2021/07/13 09:13:09;;;;;;;;;19.60;19.60;;;;;34.27;41.48;98367.66;6287893;27;97446;-62
2021/07/13 09:16:15;;;;;;;;;22.60;21.60;;;;;34.44;41.01;98372.56;6288903;27;96669;-62
2021/07/13 09:19:18;;;;;;;;;23.50;22.00;;;;;34.59;40.98;98365.84;6289263;27;96537;-62
2021/07/13 09:22:22;;;;;;;;;21.00;20.00;;;;;34.59;40.91;98359.44;6288652;27;97561;-62
2021/07/13 09:25:34;;;;;;;;;22.00;20.80;;;;;34.71;40.79;98359.91;6288095;27;97363;-62
2021/07/13 09:28:41;;;;;;;;;20.60;20.00;;;;;34.82;39.96;98353.53;6287876;27;96934;-62
2021/07/13 09:31:44;;;;;;;;;21.60;21.00;;;;;34.69;39.94;98355.91;6289002;27;96676;-63
2021/07/13 09:34:50;;;;;;;;;22.00;21.00;;;;;34.62;39.67;98353.84;6289353;27;97121;-62
2021/07/13 09:37:53;;;;;;;;;22.00;21.00;;;;;34.73;40.00;98357.53;6288460;27;97392;-62
2021/07/13 09:41:01;;;;;;;;;22.20;22.20;;;;;34.67;39.04;98356.28;6289163;27;97212;-63
2021/07/13 09:44:10;;;;;;;;;24.00;23.00;;;;;34.82;40.27;98361.94;6284199;27;97523;-61
2021/07/13 09:47:28;;;;;;;;;23.60;22.40;;;;;34.71;39.68;98362.69;6288746;27;98059;-63
2021/07/13 09:50:34;;;;;;;;;22.00;21.00;;;;;34.81;40.41;98349.13;6288365;27;96973;-63
2021/07/13 09:53:38;;;;;;;;;19.75;19.00;;;;;35.03;40.66;98346.00;6279801;27;97019;-62
2021/07/13 09:56:42;;;;;;;;;22.00;21.00;;;;;35.29;38.80;98344.84;6284686;27;96693;-62
2021/07/13 09:59:50;;;;;;;;;22.20;22.00;;;;;35.44;39.67;98348.47;6288145;27;97234;-63
2021/07/13 10:02:53;;;;;;;;;19.80;18.20;;;;;35.33;37.73;98350.47;6286530;27;97121;-62
2021/07/13 10:05:59;;;;;;;;;20.60;19.00;;;;;35.38;38.12;98348.09;6279648;27;96672;-63
2021/07/13 10:09:07;;;;;;;;;19.00;19.00;;;;;35.57;37.91;98344.88;6278641;27;97446;-64
2021/07/13 10:12:14;;;;;;;;;23.75;21.75;;;;;35.83;38.77;98335.25;6286940;27;97355;-64
2021/07/13 10:15:20;;;;;;;;;21.20;19.20;;;;;36.13;37.97;98342.44;6287287;27;97159;-62
2021/07/13 10:18:24;;;;;;;;;23.00;23.00;;;;;36.32;36.82;98330.78;6274765;27;96958;-62
2021/07/13 10:21:28;;;;;;;;;22.80;21.20;;;;;36.41;37.12;98336.75;6287704;27;96614;-63
2021/07/13 10:24:34;;;;;;;;;20.00;19.00;;;;;36.30;36.45;98344.44;6283888;27;97448;-63
2021/07/13 10:27:40;;;;;;;;;21.60;20.00;;;;;36.41;37.64;98337.56;6288070;27;97448;-62
2021/07/13 10:30:46;;;;;;;;;23.50;22.00;;;;;36.55;37.38;98328.28;6286374;27;97470;-63
2021/07/13 10:33:56;;;;;;;;;20.25;20.00;;;;;36.32;34.91;98328.75;6287786;27;96545;-62
2021/07/13 10:37:25;;;;;;;;;20.50;18.50;;;;;36.41;35.48;98322.72;6278490;27;97421;-62
2021/07/13 10:40:38;;;;;;;;;21.80;20.00;;;;;36.65;36.75;98335.09;6286906;27;96526;-63
2021/07/13 10:43:48;;;;;;;;;20.80;18.80;;;;;36.87;35.58;98330.97;6276498;27;97347;-62
2021/07/13 10:47:27;;;;;;;;;22.00;22.00;;;;;36.85;35.54;98328.56;6285935;27;97212;-62
2021/07/13 10:50:36;;;;;;;;;23.00;21.00;;;;;37.10;36.38;98324.81;6274278;27;96648;-63
2021/07/13 10:53:42;;;;;;;;;19.40;19.00;;;;;37.28;34.65;98317.06;6283584;27;97761;-63
2021/07/13 10:56:46;;;;;;;;;19.40;18.60;;;;;37.36;34.76;98313.00;6287715;27;96562;-63
2021/07/13 10:59:50;;;;;;;;;21.00;20.00;;;;;37.52;35.42;98316.06;6274976;27;98880;-63
2021/07/13 11:02:55;;;;;;;;;20.60;18.60;;;;;37.66;33.75;98313.16;6287214;27;96620;-63
2021/07/13 11:05:59;;;;;;;;;21.80;19.80;;;;;37.55;32.62;98298.41;6286119;27;96522;-63
2021/07/13 11:09:02;;;;;;;;;20.40;19.40;;;;;37.44;32.05;98306.09;6285800;27;97487;-63
2021/07/13 11:12:15;;;;;;;;;20.60;20.60;;;;;37.11;32.27;98278.66;6286993;27;97086;-64
2021/07/13 11:15:18;;;;;;;;;20.00;19.00;;;;;37.30;33.53;98307.00;6282212;27;98008;-64
2021/07/13 11:18:28;;;;;;;;;20.00;19.00;;;;;37.21;33.26;98303.88;6281286;27;96546;-63
2021/07/13 11:21:35;;;;;;;;;22.00;21.25;;;;;37.31;35.20;98305.81;6285767;27;96713;-65
2021/07/13 11:24:38;;;;;;;;;22.00;21.00;;;;;37.44;34.46;98303.28;6285844;27;97681;-63
2021/07/13 11:27:42;;;;;;;;;23.00;21.00;;;;;37.52;35.19;98299.19;6286739;27;97076;-64
2021/07/13 11:30:50;;;;;;;;;22.00;21.20;;;;;37.56;34.27;98288.75;6286533;27;96781;-64
2021/07/13 11:33:56;;;;;;;;;24.00;24.00;;;;;37.58;34.26;98289.13;6286552;27;96632;-64
2021/07/13 11:36:59;;;;;;;;;24.50;22.50;;;;;37.69;33.28;98287.00;6275493;27;96597;-64
2021/07/13 11:40:07;;;;;;;;;21.00;20.50;;;;;37.50;32.37;98267.06;6285828;27;96561;-64
2021/07/13 11:43:11;;;;;;;;;19.00;18.00;;;;;37.67;32.87;98271.78;6287244;27;97093;-64
2021/07/13 11:46:17;;;;;;;;;19.33;19.33;;;;;37.62;32.29;98264.59;6285744;27;97160;-62
2021/07/13 11:49:24;;;;;;;;;17.60;17.40;;;;;37.60;31.27;98267.00;6284578;27;97391;-63
2021/07/13 11:52:28;;;;;;;;;19.00;18.00;;;;;37.77;30.78;98265.25;6279678;27;97358;-64
2021/07/13 11:55:32;;;;;;;;;17.80;16.80;;;;;37.73;30.51;98251.19;6270569;27;96678;-64
2021/07/13 11:58:37;;;;;;;;;17.80;15.80;;;;;37.83;29.50;98262.78;6283181;27;96632;-63
2021/07/13 12:01:40;;;;;;;;;15.80;15.80;;;;;37.85;28.54;98255.50;6286214;27;97451;-62
2021/07/13 12:04:48;;;;;;;;;18.00;17.00;;;;;37.85;28.78;98266.75;6286945;27;98233;-63
2021/07/13 12:07:51;;;;;;;;;17.40;16.00;;;;;37.80;28.71;98264.41;6275355;27;97331;-64
2021/07/13 12:10:54;;;;;;;;;16.00;15.00;;;;;37.78;28.89;98251.97;6286504;27;96977;-62
2021/07/13 12:13:59;;;;;;;;;17.00;16.00;;;;;37.99;30.07;98248.94;6279476;27;97710;-64
2021/07/13 12:17:03;;;;;;;;;18.33;18.00;;;;;37.95;27.45;98250.97;6286697;27;97071;-62
2021/07/13 12:20:11;;;;;;;;;17.00;16.00;;;;;37.40;28.49;98240.66;6284484;27;96950;-64
2021/07/13 12:23:14;;;;;;;;;16.80;16.00;;;;;37.42;28.97;98229.78;6265548;27;96830;-64
2021/07/13 12:26:32;;;;;;;;;14.20;13.80;;;;;37.52;29.34;98250.59;6282173;27;97052;-63
2021/07/13 12:29:40;;;;;;;;;20.60;18.60;;;;;37.72;29.68;98241.19;6270140;27;96682;-64
2021/07/13 12:32:44;;;;;;;;;20.60;19.00;;;;;37.51;29.13;98244.16;6276225;27;96717;-64
2021/07/13 12:35:51;;;;;;;;;20.00;19.00;;;;;37.14;29.61;98235.69;6274598;27;97272;-64
2021/07/13 12:38:57;;;;;;;;;19.00;18.25;;;;;37.20;29.94;98226.38;6269271;27;98104;-64
2021/07/13 12:42:02;;;;;;;;;18.00;17.00;;;;;37.22;30.43;98234.41;6270577;27;97152;-64
2021/07/13 12:45:11;;;;;;;;;22.00;21.00;;;;;37.24;31.30;98231.97;6274158;27;97375;-63
2021/07/13 12:48:29;;;;;;;;;19.75;19.00;;;;;37.20;31.72;98226.38;6263983;27;97080;-64
2021/07/13 12:51:35;;;;;;;;;23.00;22.00;;;;;37.23;31.62;98224.75;6276958;27;97409;-63
2021/07/13 12:54:56;;;;;;;;;20.00;19.00;;;;;37.16;31.52;98225.59;6271496;27;96904;-64
2021/07/13 12:58:12;;;;;;;;;19.00;18.20;;;;;37.00;30.82;98221.69;6262393;27;97038;-64
2021/07/13 13:01:19;;;;;;;;;18.75;17.00;;;;;36.92;31.58;98222.97;6281974;27;96811;-63
2021/07/13 13:04:22;;;;;;;;;21.40;19.40;;;;;36.73;31.02;98216.69;6276846;27;96506;-63
2021/07/13 13:07:27;;;;;;;;;19.00;18.25;;;;;36.47;31.56;98201.16;6268642;27;96641;-62
2021/07/13 13:10:31;;;;;;;;;19.60;18.00;;;;;36.42;31.62;98195.19;6268358;27;97441;-63
2021/07/13 13:13:35;;;;;;;;;18.80;17.00;;;;;36.38;30.63;98191.59;6269621;27;96648;-62
2021/07/13 13:16:41;;;;;;;;;19.00;18.75;;;;;36.60;31.63;98201.50;6272412;27;97498;-64
2021/07/13 13:19:46;;;;;;;;;18.20;16.20;;;;;36.70;31.24;98192.22;6276831;27;97172;-63
2021/07/13 13:22:52;;;;;;;;;17.25;17.25;;;;;36.83;31.38;98182.09;6272428;27;96744;-62
2021/07/13 13:25:55;;;;;;;;;19.00;17.50;;;;;36.75;30.44;98177.72;6280273;27;97408;-63
2021/07/13 13:29:00;;;;;;;;;17.00;17.00;;;;;36.90;30.74;98181.22;6273197;27;97134;-64
2021/07/13 13:32:04;;;;;;;;;17.80;16.80;;;;;37.11;29.75;98178.28;6267755;27;97421;-62
2021/07/13 13:35:11;;;;;;;;;17.60;17.00;;;;;37.12;30.62;98167.84;6279825;27;96703;-63
2021/07/13 13:38:36;;;;;;;;;17.00;17.00;;;;;36.88;30.56;98170.41;6279520;27;96725;-63
2021/07/13 13:41:40;;;;;;;;;19.60;19.00;;;;;36.89;30.51;98162.78;6279882;27;97535;-63
2021/07/13 13:44:43;;;;;;;;;19.00;19.00;;;;;36.92;30.71;98166.78;6284750;27;96484;-63
2021/07/13 13:47:46;;;;;;;;;17.00;15.25;;;;;36.79;30.69;98158.06;6279183;27;97468;-63
2021/07/13 13:50:50;;;;;;;;;17.20;17.00;;;;;36.87;31.16;98159.59;6287573;27;97093;-63
2021/07/13 13:54:11;;;;;;;;;19.25;19.00;;;;;36.88;31.18;98158.38;6280815;27;96741;-64
2021/07/13 13:57:14;;;;;;;;;17.00;16.00;;;;;36.88;30.93;98149.94;6273827;27;97427;-63
2021/07/13 14:00:19;;;;;;;;;17.00;16.00;;;;;36.84;31.30;98144.38;6276724;27;97391;-64
2021/07/13 14:03:24;;;;;;;;;16.00;16.00;;;;;36.81;32.13;98147.19;6257247;27;100280;-63
2021/07/13 14:06:28;;;;;;;;;16.00;15.00;;;;;36.68;31.28;98140.47;6280749;27;96581;-63
2021/07/13 14:09:33;;;;;;;;;17.20;16.60;;;;;36.79;32.15;98141.19;6274885;27;97549;-62
2021/07/13 14:12:57;;;;;;;;;18.20;17.20;;;;;36.87;31.90;98137.13;6281921;27;97635;-63
2021/07/13 14:16:01;;;;;;;;;17.00;17.00;;;;;36.69;31.39;98140.06;6268379;27;96413;-63
2021/07/13 14:19:05;;;;;;;;;18.00;16.80;;;;;36.67;32.14;98138.88;6277867;27;97752;-64